Latest Weather Observations for Hamilton

IDV60801

Issued at 4:05 pm EDT Saturday 29 November 2014 (issued every 30 minutes, with the page automatically refreshed every 10 minutes)

About weather observations | Map of weather stations | Latest weather observations for VIC | Other Formats
Station Details ID: 090173 Name: HAMILTON AIRPORT Lat: -37.65 Lon: 142.06 Height: 241.1 m
Data from the previous 72 hours. | See also: Recent months at Hamilton
Date/Time
EDT
Temp
°C
App
Temp
°C
Dew
Point
Rel
Hum
%
Delta-T
°C
Wind Press
QNH
hPa
Press
MSL
hPa
Rain
since 9 am
mm
Dir
 
Spd
km/h
Gust
km/h
Spd
kts
Gust
kts
29/04:00pm 30.8 25.4 1.2 15 14.7 S 19 28 10 15 1010.7 1010.5 0.0
29/03:30pm 31.2 26.4 2.4 16 14.6 SW 17 26 9 14 1011.0 1010.7 0.0
29/03:00pm 30.5 26.2 1.0 15 14.6 SSW 13 20 7 11 1011.4 1011.1 0.0
29/02:30pm 30.0 26.0 0.6 15 14.3 NNE 11 19 6 10 1011.7 1011.4 0.0
29/02:00pm 29.8 25.8 0.4 15 14.3 S 11 19 6 10 1012.1 1011.8 0.0
29/01:30pm 29.2 24.9 0.8 16 13.8 SW 13 26 7 14 1012.6 1012.3 0.0
29/01:00pm 28.9 24.7 1.4 17 13.5 SSW 13 20 7 11 1012.9 1012.6 0.0
29/12:30pm 28.4 24.6 1.8 18 13.1 SSW 11 17 6 9 1013.3 1013.0 0.0
29/12:00pm 27.1 23.8 2.2 20 12.3 E 9 17 5 9 1013.6 1013.3 0.0
29/11:30am 26.4 22.5 3.6 23 11.4 ESE 13 22 7 12 1014.0 1013.8 0.0
29/11:00am 25.1 20.5 3.7 25 10.7 ESE 17 20 9 11 1014.2 1014.0 0.0
29/10:30am 23.5 19.3 5.9 32 9.0 ESE 17 20 9 11 1014.5 1014.3 0.0
29/10:00am 21.3 17.2 6.4 38 7.6 ESE 17 22 9 12 1015.0 1014.8 0.0
29/09:30am 18.8 14.9 7.3 47 5.9 ESE 17 20 9 11 1015.3 1015.0 0.0
29/09:00am 16.3 13.2 8.8 61 3.9 ESE 15 19 8 10 1015.7 1015.4 0.0
29/08:30am 13.6 9.2 8.9 73 2.4 ESE 22 28 12 15 1015.7 1015.4 0.0
29/08:00am 11.3 6.3 9.7 90 0.8 ESE 26 32 14 17 1015.8 1015.5 0.0
29/07:30am 10.1 5.1 9.6 97 0.3 ESE 26 33 14 18 1015.7 1015.4 0.0
29/07:00am 8.9 3.7 8.8 99 0.0 ESE 26 32 14 17 1015.7 1015.4 0.0
29/06:30am 7.9 2.5 7.8 99 0.0 ESE 26 32 14 17 1015.7 1015.4 0.0
29/06:00am 7.5 1.9 7.2 98 0.1 ESE 26 33 14 18 1015.8 1015.5 0.0
29/05:30am 7.6 1.7 7.3 98 0.1 ESE 28 33 15 18 1015.9 1015.6 0.0
29/05:00am 7.8 1.9 7.4 97 0.2 ESE 28 33 15 18 1016.0 1015.7 0.0
29/04:30am 7.9 2.8 7.5 97 0.2 ESE 24 32 13 17 1015.9 1015.6 0.0
29/04:00am 7.9 3.5 7.3 96 0.3 ESE 20 26 11 14 1015.9 1015.6 0.0
29/03:30am 8.1 3.3 7.3 95 0.4 ESE 22 30 12 16 1016.0 1015.7 0.0
29/03:00am 8.3 3.1 7.4 94 0.4 ESE 24 30 13 16 1016.4 1016.1 0.0
29/02:30am 8.5 3.0 7.4 93 0.5 ESE 26 32 14 17 1016.6 1016.3 0.0
29/02:00am 8.8 3.3 7.6 92 0.6 ESE 26 32 14 17 1016.9 1016.6 0.0
29/01:30am 8.9 4.1 7.5 91 0.7 SE 22 28 12 15 1017.3 1017.1 0.0
29/01:00am 9.4 4.4 8.2 92 0.6 ESE 24 30 13 16 1017.4 1017.2 0.0
29/12:30am 9.3 4.4 8.4 94 0.4 ESE 24 32 13 17 1017.7 1017.5 0.0
29/12:00am 9.1 4.8 8.0 93 0.5 SE 20 28 11 15 1018.2 1018.0 0.0
 
Date/Time
EDT
Temp
°C
App
Temp
°C
Dew
Point
Rel
Hum
%
Delta-T
°C
Wind Press
QNH
hPa
Press
MSL
hPa
Rain
since 9 am
mm
Dir
 
Spd
km/h
Gust
km/h
Spd
kts
Gust
kts
28/11:30pm 9.6 5.0 8.2 91 0.7 SE 22 28 12 15 1018.5 1018.3 0.0
28/11:00pm 9.9 5.7 8.2 89 0.8 SE 20 26 11 14 1019.0 1018.8 0.0
28/10:30pm 10.2 6.5 8.1 87 1.0 SE 17 20 9 11 1019.3 1019.1 0.0
28/10:00pm 10.9 6.9 8.3 84 1.3 SE 19 24 10 13 1019.3 1019.1 0.0
28/09:30pm 11.4 6.9 8.4 82 1.5 SE 22 26 12 14 1019.4 1019.2 0.0
28/09:00pm 12.2 7.0 8.9 80 1.7 SSE 26 35 14 19 1019.2 1019.0 0.0
28/08:30pm 13.1 7.1 8.8 75 2.2 SSE 30 39 16 21 1019.1 1018.9 0.0
28/08:00pm 14.7 9.6 9.1 69 2.9 SSE 26 37 14 20 1018.7 1018.5 0.0
28/07:30pm 16.4 11.0 9.6 64 3.6 S 28 37 15 20 1018.6 1018.4 0.0
28/07:00pm 18.2 12.5 9.8 58 4.5 SSE 30 37 16 20 1018.3 1018.1 0.0
28/06:30pm 19.7 14.1 10.1 54 5.2 S 30 41 16 22 1018.0 1017.8 0.0
28/06:00pm 21.6 15.7 10.4 49 6.2 SSE 32 39 17 21 1018.0 1017.8 0.0
28/05:30pm 23.8 18.3 10.5 43 7.4 SSE 30 37 16 20 1017.9 1017.7 0.0
28/05:00pm 25.8 20.6 2.5 22 11.4 SE 19 28 10 15 1018.0 1017.8 0.0
28/04:30pm 25.7 20.3 2.4 22 11.4 SE 20 26 11 14 1018.1 1017.9 0.0
28/04:00pm 25.7 20.8 4.2 25 10.8 ESE 19 28 10 15 1018.5 1018.3 0.0
28/03:30pm 25.2 20.7 4.3 26 10.5 ESE 17 28 9 15 1018.9 1018.7 0.0
28/03:00pm 24.2 19.9 3.5 26 10.2 ESE 15 24 8 13 1019.2 1019.0 0.0
28/02:30pm 24.4 19.5 4.2 27 10.1 ESE 19 24 10 13 1019.6 1019.3 0.0
28/02:00pm 23.0 17.9 4.0 29 9.4 ESE 20 28 11 15 1020.1 1019.8 0.0
28/01:30pm 22.9 18.0 5.3 32 8.9 E 20 28 11 15 1020.7 1020.4 0.0
28/01:00pm 21.1 16.3 5.5 36 7.8 ESE 20 28 11 15 1021.2 1021.0 0.0
28/12:30pm 20.6 15.6 6.5 40 7.2 ESE 22 32 12 17 1021.6 1021.4 0.0
28/12:00pm 19.0 13.6 6.5 44 6.3 ESE 24 35 13 19 1022.1 1021.9 0.0
28/11:30am 18.0 12.7 6.8 48 5.7 ESE 24 35 13 19 1022.3 1022.1 0.0
28/11:00am 16.4 10.4 7.1 54 4.7 E 28 35 15 19 1022.5 1022.3 0.0
28/10:30am 16.0 10.8 7.2 56 4.4 SE 24 32 13 17 1022.8 1022.6 0.0
28/10:00am 15.0 10.1 8.5 65 3.3 E 24 35 13 19 1022.7 1022.5 0.0
28/09:30am 12.8 6.9 7.5 70 2.6 ESE 28 35 15 19 1023.1 1022.9 0.0
28/09:28am 13.2 7.3 7.6 69 2.8 ESE 28 35 15 19 1023.1 1022.9 0.0
28/09:00am 11.0 3.8 7.5 79 1.7 ESE 35 43 19 23 1023.3 1023.1 0.0
28/08:30am 10.1 3.7 8.7 91 0.7 ESE 32 43 17 23 1023.6 1023.4 0.0
28/08:00am 9.5 3.3 9.4 99 0.1 ESE 32 41 17 22 1023.2 1023.0 0.0
28/07:30am 8.6 2.9 8.5 99 0.0 ESE 28 35 15 19 1023.1 1022.9 0.0
28/07:00am 7.8 1.9 7.7 99 0.0 ESE 28 35 15 19 1023.1 1022.9 0.0
28/06:36am 7.1 2.2 7.0 99 0.0 ESE 22 28 12 15 1023.3 1023.1 0.0
28/06:30am 6.8 2.4 6.7 99 0.0 ESE 19 24 10 13 1023.3 1023.1 0.0
28/06:00am 6.0 1.8 5.9 99 0.0 SE 17 20 9 11 1023.4 1023.2 0.0
28/05:30am 5.6 1.0 5.5 99 0.0 ESE 19 24 10 13 1023.0 1022.8 0.0
28/05:00am 5.8 2.4 5.7 99 0.0 ESE 13 20 7 11 1022.7 1022.5 0.0
28/04:35am 5.5 0.7 5.4 99 0.0 ESE 20 26 11 14 1022.4 1022.2 0.0
28/04:30am 5.4 0.5 5.1 98 0.1 ESE 20 24 11 13 1022.2 1022.0 0.0
28/04:27am 5.3 0.4 5.0 98 0.1 SE 20 24 11 13 1022.1 1021.9 0.0
28/04:00am 5.5 0.6 5.2 98 0.1 SE 20 26 11 14 1022.1 1021.9 0.0
28/03:30am 5.6 0.7 5.2 97 0.2 SE 20 26 11 14 1022.1 1021.9 0.0
28/03:00am 6.2 1.4 5.8 97 0.2 SSE 20 24 11 13 1022.2 1022.0 0.0
28/02:30am 6.0 1.7 5.4 96 0.3 ESE 17 19 9 10 1021.9 1021.7 0.0
28/02:00am 6.4 1.8 5.8 96 0.3 SE 19 22 10 12 1022.0 1021.8 0.0
28/01:30am 6.6 2.1 5.9 95 0.3 ESE 19 22 10 12 1021.8 1021.6 0.0
28/01:00am 7.2 2.6 6.5 95 0.3 ESE 20 26 11 14 1022.3 1022.1 0.0
28/12:30am 7.6 3.2 6.7 94 0.4 ESE 19 22 10 12 1022.8 1022.6 0.0
28/12:00am 7.7 3.1 6.6 93 0.5 SE 20 24 11 13 1023.2 1023.0 0.0
 
Date/Time
EDT
Temp
°C
App
Temp
°C
Dew
Point
Rel
Hum
%
Delta-T
°C
Wind Press
QNH
hPa
Press
MSL
hPa
Rain
since 9 am
mm
Dir
 
Spd
km/h
Gust
km/h
Spd
kts
Gust
kts
27/11:30pm 8.2 3.3 6.8 91 0.7 SE 22 28 12 15 1023.4 1023.2 0.0
27/11:00pm 8.7 3.4 7.0 89 0.8 SE 24 30 13 16 1023.6 1023.4 0.0
27/10:30pm 9.5 4.7 7.3 86 1.1 SE 22 28 12 15 1023.8 1023.6 0.0
27/10:00pm 10.2 5.8 7.4 83 1.3 SSE 20 28 11 15 1024.0 1023.7 0.0
27/09:30pm 10.7 6.3 7.4 80 1.6 SSE 20 24 11 13 1023.6 1023.4 0.0
27/09:00pm 11.3 6.9 7.4 77 1.9 SSE 20 26 11 14 1023.7 1023.5 0.0
27/08:30pm 12.3 7.1 7.4 72 2.4 SSE 24 32 13 17 1023.7 1023.5 0.0
27/08:00pm 13.7 7.8 7.7 67 3.0 SSE 28 35 15 19 1023.5 1023.3 0.0
27/07:30pm 15.1 8.5 7.9 62 3.6 SSE 32 39 17 21 1023.4 1023.2 0.0
27/07:00pm 16.3 9.7 7.8 57 4.3 SSE 32 41 17 22 1023.2 1023.0 0.0
27/06:30pm 17.8 11.7 8.4 54 4.9 SSE 30 39 16 21 1023.0 1022.8 0.0
27/06:00pm 18.7 12.3 8.4 51 5.4 SSE 32 43 17 23 1022.9 1022.7 0.0
27/05:30pm 19.7 13.3 8.4 48 5.9 SSE 32 41 17 22 1022.9 1022.7 0.0
27/05:00pm 19.9 13.4 8.3 47 6.1 SSE 32 44 17 24 1023.0 1022.8 0.0
27/04:30pm 20.9 14.4 8.2 44 6.7 SSE 32 43 17 23 1023.1 1022.9 0.0
27/04:00pm 21.3 15.5 4.4 33 8.3 SE 24 33 13 18 1023.3 1023.1 0.0
27/03:30pm 21.7 16.8 5.2 34 8.3 SE 20 39 11 21 1023.6 1023.4 0.0
27/03:00pm 21.5 16.1 4.6 33 8.3 SE 22 35 12 19 1023.8 1023.6 0.0
27/02:30pm 20.6 15.6 4.6 35 7.9 SE 20 30 11 16 1024.2 1023.9 0.0
27/02:00pm 20.0 14.6 4.5 36 7.5 SE 22 32 12 17 1024.4 1024.2 0.0
27/01:30pm 19.8 14.5 5.1 38 7.3 SE 22 28 12 15 1024.8 1024.6 0.0
27/01:00pm 19.0 13.9 5.8 42 6.5 ESE 22 33 12 18 1025.0 1024.8 0.0
27/12:30pm 19.2 14.3 6.7 44 6.3 SE 22 32 12 17 1025.2 1025.0 0.0
27/12:00pm 17.5 12.4 6.1 47 5.6 SE 22 32 12 17 1025.5 1025.3 0.0
27/11:30am 16.6 10.7 5.6 48 5.4 SE 26 39 14 21 1025.8 1025.6 0.0
27/11:00am 15.8 9.9 5.7 51 4.9 SE 26 35 14 19 1025.9 1025.7 0.0
27/10:30am 15.2 9.7 5.7 53 4.6 SE 24 33 13 18 1026.0 1025.8 0.0
27/10:00am 15.0 9.9 6.0 55 4.3 ESE 22 32 12 17 1026.2 1026.0 0.0
27/09:30am 13.6 7.6 5.5 58 3.9 ESE 26 39 14 21 1026.2 1026.0 0.0
27/09:00am 12.8 6.2 5.9 63 3.3 ESE 30 39 16 21 1026.1 1025.9 0.0
27/08:30am 11.7 5.0 5.6 66 2.9 ESE 30 37 16 20 1026.0 1025.8 0.0
27/08:00am 10.7 5.3 6.3 74 2.1 ESE 24 32 13 17 1025.7 1025.5 0.0
27/07:30am 9.2 5.3 7.2 87 1.0 SE 17 22 9 12 1025.6 1025.4 0.0
27/07:00am 6.8 4.2 5.9 94 0.4 SE 9 13 5 7 1025.5 1025.3 0.0
27/06:30am 3.9 -0.1 2.9 93 0.4 SE 13 15 7 8 1025.3 1025.1 0.0
27/06:00am 4.0 -0.8 2.8 92 0.5 SE 17 17 9 9 1025.1 1024.9 0.0
27/05:30am 4.2 0.6 2.9 91 0.5 SE 11 13 6 7 1025.0 1024.8 0.0
27/05:00am 5.2 2.2 3.9 91 0.6 SE 9 11 5 6 1024.8 1024.6 0.0
27/04:30am 5.2 1.7 3.7 90 0.6 SE 11 13 6 7 1024.6 1024.4 0.0
27/04:00am 6.1 2.4 4.3 88 0.8 SE 13 17 7 9 1024.3 1024.0 0.0
27/03:30am 6.5 2.8 4.3 86 1.0 SE 13 15 7 8 1024.2 1023.9 0.0
27/03:00am 7.2 4.0 5.0 86 1.0 SE 11 15 6 8 1024.3 1024.0 0.0
27/02:30am 7.5 4.2 4.3 80 1.4 SE 11 15 6 8 1024.3 1024.0 0.0
27/02:00am 8.9 4.9 5.1 77 1.7 SE 15 20 8 11 1024.4 1024.2 0.0
27/01:30am 9.7 5.9 5.7 76 1.9 SE 15 20 8 11 1024.6 1024.4 0.0
27/01:00am 9.4 7.0 6.8 84 1.2 SE 9 15 5 8 1024.9 1024.7 0.0
27/12:30am 9.5 6.4 7.4 87 1.0 SSE 13 19 7 10 1025.1 1024.9 0.0
27/12:00am 9.9 6.9 7.7 86 1.1 SE 13 17 7 9 1025.2 1025.0 0.0
 
Date/Time
EDT
Temp
°C
App
Temp
°C
Dew
Point
Rel
Hum
%
Delta-T
°C
Wind Press
QNH
hPa
Press
MSL
hPa
Rain
since 9 am
mm
Dir
 
Spd
km/h
Gust
km/h
Spd
kts
Gust
kts
26/11:30pm 10.5 7.2 8.1 85 1.2 SSE 15 19 8 10 1025.3 1025.1 0.0
26/11:00pm 10.5 7.3 8.4 87 1.0 SSE 15 19 8 10 1025.2 1025.0 0.0
26/10:30pm 10.9 8.2 8.8 87 1.1 SSE 13 15 7 8 1025.0 1024.8 0.0
26/10:00pm 11.6 8.6 9.2 85 1.2 SSE 15 19 8 10 1024.8 1024.6 0.0
26/09:30pm 11.8 7.7 8.8 82 1.5 SSE 20 24 11 13 1024.5 1024.3 0.0
26/09:00pm 12.6 9.5 8.9 78 1.9 SSE 15 20 8 11 1024.3 1024.0 0.0
26/08:30pm 13.1 7.9 8.8 75 2.2 SSE 26 32 14 17 1024.0 1023.7 0.0
26/08:00pm 13.9 10.2 9.5 75 2.3 SSE 19 26 10 14 1023.7 1023.5 0.0
26/07:30pm 14.4 9.8 9.8 74 2.4 S 24 30 13 16 1023.5 1023.3 0.0
26/07:00pm 14.9 10.4 9.9 72 2.6 S 24 30 13 16 1023.2 1023.0 0.0
26/06:30pm 15.7 10.7 10.9 73 2.6 S 28 35 15 19 1022.9 1022.7 0.0
26/06:00pm 16.0 11.4 11.2 73 2.6 S 26 35 14 19 1022.7 1022.5 0.0
26/05:30pm 16.1 10.9 11.5 74 2.5 S 30 35 16 19 1022.7 1022.5 0.0
26/05:00pm 16.4 12.7 12.6 78 2.1 S 24 32 13 17 1022.6 1022.4 0.0
26/04:30pm 15.5 11.1 12.8 84 1.5 SSW 28 39 15 21 1022.7 1022.5 0.0

Other Formats:

Comma delimited format used in spreadsheet applications
http://www.bom.gov.au/fwo/IDV60801/IDV60801.94829.axf

JavaScript Object Notation format (JSON) in row-major order
http://www.bom.gov.au/fwo/IDV60801/IDV60801.94829.json